createdAt,value
2023-10-12T00:00:00.289Z,4.72
2023-10-12T00:02:28.486Z,5.75
2023-10-12T00:05:07.333Z,4.30
2023-10-12T00:07:34.588Z,4.85
2023-10-12T00:10:14.872Z,4.45
2023-10-12T00:12:49.356Z,3.63
2023-10-12T00:15:30.573Z,4.25
2023-10-12T00:18:09.945Z,4.47
2023-10-12T00:20:39.142Z,4.38
2023-10-12T00:23:11.557Z,4.25
2023-10-12T00:25:59.774Z,4.22
2023-10-12T00:28:39.513Z,4.28
2023-10-12T00:31:08.316Z,4.32
2023-10-12T00:33:35.858Z,4.18
2023-10-12T00:36:05.935Z,3.95
2023-10-12T00:38:33.603Z,4.13
2023-10-12T00:41:04.977Z,3.60
2023-10-12T00:43:38.974Z,3.92
2023-10-12T00:46:27.319Z,3.55
2023-10-12T00:49:13.762Z,4.03
2023-10-12T00:51:42.164Z,4.50
2023-10-12T00:54:11.743Z,4.15
2023-10-12T00:56:44.803Z,4.07
2023-10-12T00:59:13.638Z,4.13
2023-10-12T01:01:40.976Z,4.13
2023-10-12T01:04:17.065Z,3.78
2023-10-12T01:06:51.072Z,4.47
2023-10-12T01:09:21.749Z,3.55
2023-10-12T01:11:55.988Z,3.90
2023-10-12T01:14:27.865Z,4.40
2023-10-12T01:16:59.252Z,3.97
2023-10-12T01:19:32.386Z,4.32
2023-10-12T01:22:13.331Z,3.88
2023-10-12T01:24:53.832Z,4.45
2023-10-12T01:27:24.324Z,4.53
2023-10-12T01:29:52.329Z,4.00
2023-10-12T01:32:19.930Z,4.43
2023-10-12T01:35:05.247Z,4.18
2023-10-12T01:37:42.802Z,3.65
2023-10-12T01:40:16.950Z,3.53
2023-10-12T01:42:50.285Z,4.55
2023-10-12T01:45:24.879Z,3.67
2023-10-12T01:47:56.680Z,3.70
2023-10-12T01:50:28.742Z,4.03
2023-10-12T01:53:00.402Z,3.83
2023-10-12T01:55:31.818Z,4.35
2023-10-12T01:58:00.166Z,4.75
2023-10-12T02:00:40.545Z,3.30
2023-10-12T02:03:19.797Z,4.60
2023-10-12T02:06:07.250Z,3.92
2023-10-12T02:08:55.579Z,4.10
2023-10-12T02:11:25.608Z,3.17
2023-10-12T02:13:55.404Z,3.75
2023-10-12T02:16:32.529Z,4.05
2023-10-12T02:19:05.516Z,4.45
2023-10-12T02:21:34.747Z,4.40
2023-10-12T02:24:08.072Z,4.00
2023-10-12T02:26:41.718Z,3.95
2023-10-12T02:29:13.070Z,3.83
2023-10-12T02:31:50.680Z,3.72
2023-10-12T02:34:44.271Z,3.95
2023-10-12T02:37:11.505Z,3.83
2023-10-12T02:39:41.750Z,4.03
2023-10-12T02:42:19.418Z,3.25
2023-10-12T02:44:51.215Z,4.18
2023-10-12T02:47:24.845Z,3.80
2023-10-12T02:49:52.807Z,4.45
2023-10-12T02:52:21.894Z,4.18
2023-10-12T02:54:51.070Z,4.35
2023-10-12T02:57:32.283Z,4.57
2023-10-12T03:00:19.997Z,3.90
2023-10-12T03:02:54.212Z,4.32
2023-10-12T03:05:32.291Z,3.85
2023-10-12T03:08:07.448Z,3.60
2023-10-12T03:10:34.756Z,3.20
2023-10-12T03:13:06.106Z,4.05
2023-10-12T03:15:57.723Z,3.60
2023-10-12T03:18:28.230Z,4.10
2023-10-12T03:21:12.945Z,4.00
2023-10-12T03:23:47.935Z,3.40
2023-10-12T03:26:26.076Z,3.60
2023-10-12T03:28:55.442Z,3.67
2023-10-12T03:31:24.687Z,3.67
2023-10-12T03:33:56.410Z,3.30
2023-10-12T03:36:28.027Z,4.15
2023-10-12T03:39:19.774Z,3.40
2023-10-12T03:41:48.162Z,4.10
2023-10-12T03:44:34.710Z,4.38
2023-10-12T03:47:20.975Z,3.75
2023-10-12T03:49:55.022Z,3.78
2023-10-12T03:52:22.248Z,3.85
2023-10-12T03:54:58.434Z,3.85
2023-10-12T03:57:52.431Z,3.95
2023-10-12T04:00:19.707Z,4.30
2023-10-12T04:02:55.652Z,3.85
2023-10-12T04:05:43.468Z,4.45
2023-10-12T04:08:10.736Z,4.00
2023-10-12T04:10:47.466Z,3.85
2023-10-12T04:13:30.608Z,4.05
2023-10-12T04:16:28.723Z,4.05
2023-10-12T04:18:56.152Z,3.95
2023-10-12T04:21:34.603Z,4.32
2023-10-12T04:24:17.610Z,3.83
2023-10-12T04:27:10.068Z,3.97
2023-10-12T04:29:40.111Z,3.95
2023-10-12T04:32:30.855Z,4.10
2023-10-12T04:34:58.561Z,4.07
2023-10-12T04:37:28.731Z,3.90
2023-10-12T04:39:59.091Z,3.92
2023-10-12T04:42:35.011Z,4.00
2023-10-12T04:45:10.953Z,4.18
2023-10-12T04:47:38.193Z,4.20
2023-10-12T04:50:08.421Z,4.25
2023-10-12T04:52:38.704Z,4.43
2023-10-12T04:55:21.485Z,4.32
2023-10-12T04:57:57.428Z,3.55
2023-10-12T05:00:36.164Z,4.50
2023-10-12T05:03:24.254Z,3.97
2023-10-12T05:06:18.120Z,3.90
2023-10-12T05:08:47.253Z,5.47
2023-10-12T05:11:15.315Z,3.72
2023-10-12T05:13:45.226Z,4.10
2023-10-12T05:16:15.708Z,4.68
2023-10-12T05:18:43.338Z,4.05
2023-10-12T05:21:12.033Z,4.10
2023-10-12T05:23:39.544Z,4.65
2023-10-12T05:26:07.312Z,3.67
2023-10-12T05:28:44.576Z,4.13
2023-10-12T05:31:14.569Z,4.05
2023-10-12T05:34:01.188Z,4.15
2023-10-12T05:36:30.445Z,4.10
2023-10-12T05:39:13.402Z,4.50
2023-10-12T05:41:41.101Z,5.07
2023-10-12T05:44:14.782Z,4.65
2023-10-12T05:46:42.788Z,4.40
2023-10-12T05:49:19.078Z,4.78
2023-10-12T05:51:46.895Z,4.30
2023-10-12T05:54:21.128Z,4.65
2023-10-12T05:56:53.599Z,4.70
2023-10-12T05:59:21.368Z,4.10
2023-10-12T06:01:52.616Z,4.43
2023-10-12T06:04:23.982Z,5.43
2023-10-12T06:06:53.452Z,4.55
2023-10-12T06:09:26.160Z,4.18
2023-10-12T06:11:55.413Z,4.57
2023-10-12T06:14:23.754Z,4.65
2023-10-12T06:16:56.839Z,4.25
2023-10-12T06:19:27.700Z,4.50
2023-10-12T06:22:00.803Z,4.32
2023-10-12T06:24:41.333Z,4.78
2023-10-12T06:27:20.556Z,5.07
2023-10-12T06:29:48.306Z,5.60
2023-10-12T06:32:18.535Z,4.38
2023-10-12T06:34:46.224Z,5.05
2023-10-12T06:37:33.565Z,5.10
2023-10-12T06:40:27.013Z,5.47
2023-10-12T06:43:14.808Z,5.53
2023-10-12T06:45:50.854Z,7.30
2023-10-12T06:48:31.231Z,5.85
2023-10-12T06:51:03.784Z,5.95
2023-10-12T06:53:37.726Z,5.60
2023-10-12T06:56:21.313Z,4.97
2023-10-12T06:59:10.822Z,5.47
2023-10-12T07:02:04.979Z,5.68
2023-10-12T07:04:42.620Z,6.68
2023-10-12T07:07:12.562Z,5.80
2023-10-12T07:09:47.706Z,5.55
2023-10-12T07:12:15.901Z,6.00
2023-10-12T07:14:54.581Z,5.28
2023-10-12T07:17:32.655Z,5.78
2023-10-12T07:20:00.834Z,5.93
2023-10-12T07:22:28.050Z,5.82
2023-10-12T07:24:55.851Z,5.13
2023-10-12T07:27:23.900Z,5.13
2023-10-12T07:30:23.284Z,5.88
2023-10-12T07:32:56.749Z,5.65
2023-10-12T07:35:36.247Z,4.80
2023-10-12T07:38:28.165Z,5.70
2023-10-12T07:41:00.521Z,6.22
2023-10-12T07:43:27.806Z,5.90
2023-10-12T07:45:55.731Z,5.85
2023-10-12T07:48:43.079Z,5.13
2023-10-12T07:51:39.812Z,5.22
2023-10-12T07:54:27.208Z,5.72
2023-10-12T07:56:54.868Z,6.57
2023-10-12T07:59:24.335Z,5.82
2023-10-12T08:01:51.887Z,7.45
2023-10-12T08:04:32.787Z,7.03
2023-10-12T08:07:08.139Z,6.60
2023-10-12T08:09:48.604Z,6.18
2023-10-12T08:12:25.442Z,6.70
2023-10-12T08:15:13.153Z,6.53
2023-10-12T08:17:47.036Z,6.32
2023-10-12T08:20:34.568Z,7.00
2023-10-12T08:23:03.712Z,6.20
2023-10-12T08:25:39.304Z,7.00
2023-10-12T08:28:20.105Z,6.97
2023-10-12T08:30:58.771Z,6.68
2023-10-12T08:33:44.950Z,6.18
2023-10-12T08:36:18.453Z,7.15
2023-10-12T08:38:55.316Z,6.80
2023-10-12T08:41:37.442Z,6.97
2023-10-12T08:44:06.252Z,6.45
2023-10-12T08:46:43.122Z,6.22
2023-10-12T08:49:49.244Z,6.63
2023-10-12T08:52:19.999Z,6.65
2023-10-12T08:54:54.796Z,7.00
2023-10-12T08:57:39.611Z,7.15
2023-10-12T09:00:26.588Z,6.32
2023-10-12T09:03:21.043Z,6.45
2023-10-12T09:05:55.963Z,7.13
2023-10-12T09:08:24.187Z,6.78
2023-10-12T09:11:04.212Z,6.38
2023-10-12T09:13:35.392Z,7.35
2023-10-12T09:16:13.133Z,6.82
2023-10-12T09:19:00.290Z,6.43
2023-10-12T09:21:40.426Z,6.68
2023-10-12T09:24:16.132Z,6.25
2023-10-12T09:26:50.844Z,6.20
2023-10-12T09:29:25.165Z,6.00
2023-10-12T09:32:14.132Z,6.38
2023-10-12T09:34:45.445Z,6.88
2023-10-12T09:37:21.682Z,8.60
2023-10-12T09:39:49.577Z,9.63
2023-10-12T09:42:23.762Z,9.43
2023-10-12T09:45:25.443Z,7.03
2023-10-12T09:48:06.870Z,6.03
2023-10-12T09:50:37.754Z,2.42
2023-10-12T09:53:23.530Z,1.40
2023-10-12T09:56:13.243Z,1.63
2023-10-12T09:58:54.679Z,1.90
2023-10-12T10:01:45.160Z,1.67
2023-10-12T10:04:38.736Z,1.65
2023-10-12T10:07:26.998Z,3.00
2023-10-12T10:10:02.607Z,3.97
2023-10-12T10:12:31.985Z,2.47
2023-10-12T10:15:01.721Z,1.90
2023-10-12T10:17:37.802Z,1.92
2023-10-12T10:20:24.479Z,1.98
2023-10-12T10:22:58.292Z,2.60
2023-10-12T10:25:29.614Z,2.72
2023-10-12T10:27:57.958Z,2.90
2023-10-12T10:30:26.724Z,1.88
2023-10-12T10:33:21.876Z,2.17
2023-10-12T10:35:55.288Z,2.17
2023-10-12T10:38:22.594Z,2.05
2023-10-12T10:40:50.208Z,1.52
2023-10-12T10:43:17.853Z,2.03
2023-10-12T10:45:58.328Z,1.90
2023-10-12T10:50:56.273Z,1.80
2023-10-12T10:53:32.151Z,1.88
2023-10-12T10:56:01.369Z,2.05
2023-10-12T10:58:30.813Z,1.65
2023-10-12T11:00:58.393Z,1.92
2023-10-12T11:03:27.776Z,1.42
2023-10-12T11:05:55.342Z,1.80
2023-10-12T11:08:27.957Z,1.85
2023-10-12T11:11:11.221Z,1.70
2023-10-12T11:13:41.805Z,1.77
2023-10-12T11:16:27.722Z,1.45
2023-10-12T11:18:56.051Z,1.52
2023-10-12T11:21:23.628Z,1.60
2023-10-12T11:23:52.319Z,2.00
2023-10-12T11:26:22.700Z,2.85
2023-10-12T11:29:03.939Z,5.25
2023-10-12T11:31:34.856Z,4.78
2023-10-12T11:34:08.734Z,4.20
2023-10-12T11:36:39.338Z,3.67
2023-10-12T11:39:18.972Z,3.50
2023-10-12T11:42:05.346Z,4.22
2023-10-12T11:44:38.024Z,2.70
2023-10-12T11:47:08.627Z,2.70
2023-10-12T11:50:01.361Z,3.00
2023-10-12T11:52:35.829Z,2.00
2023-10-12T11:55:19.886Z,2.20
2023-10-12T11:57:55.811Z,2.03
2023-10-12T12:00:30.920Z,1.52
2023-10-12T12:03:04.307Z,1.80
2023-10-12T12:05:32.409Z,2.25
2023-10-12T12:08:00.583Z,1.73
2023-10-12T12:10:45.483Z,1.70
2023-10-12T12:13:13.595Z,1.92
2023-10-12T12:15:44.477Z,1.63
2023-10-12T12:18:30.705Z,2.30
2023-10-12T12:20:58.375Z,1.90
2023-10-12T12:23:30.658Z,1.90
2023-10-12T12:26:03.456Z,1.77
2023-10-12T12:28:34.479Z,2.70
2023-10-12T12:31:06.213Z,2.55
2023-10-12T12:33:33.490Z,3.03
2023-10-12T12:36:13.985Z,3.40
2023-10-12T12:38:41.909Z,3.03
2023-10-12T12:41:23.559Z,2.60
2023-10-12T12:43:51.193Z,3.05
2023-10-12T12:46:19.101Z,2.40
2023-10-12T12:48:47.035Z,2.33
2023-10-12T12:51:16.520Z,3.47
2023-10-12T12:53:47.527Z,2.58
2023-10-12T12:56:18.693Z,1.52
2023-10-12T12:58:49.347Z,2.75
2023-10-12T13:01:20.171Z,1.88
2023-10-12T13:03:47.992Z,2.00
2023-10-12T13:06:18.234Z,1.88
2023-10-12T13:08:45.487Z,2.28
2023-10-12T13:11:13.445Z,2.88
2023-10-12T13:13:41.052Z,2.85
2023-10-12T13:16:14.054Z,1.80
2023-10-12T13:18:47.428Z,2.30
2023-10-12T13:21:16.063Z,2.08
2023-10-12T13:23:46.531Z,2.92
2023-10-12T13:26:19.333Z,2.25
2023-10-12T13:28:46.730Z,2.28
2023-10-12T13:31:14.279Z,2.33
2023-10-12T13:33:45.308Z,2.10
2023-10-12T13:36:12.629Z,4.20
2023-10-12T13:38:40.745Z,2.72
2023-10-12T13:41:12.449Z,3.10
2023-10-12T13:43:40.237Z,3.10
2023-10-12T13:46:12.012Z,2.50
2023-10-12T13:48:39.919Z,2.38
2023-10-12T13:51:14.926Z,2.47
2023-10-12T13:53:43.035Z,2.05
2023-10-12T13:56:11.305Z,2.30
2023-10-12T13:58:39.285Z,2.30
2023-10-12T14:01:15.487Z,2.20
2023-10-12T14:03:46.830Z,2.58
2023-10-12T14:06:14.720Z,2.92
2023-10-12T14:08:42.351Z,2.13
2023-10-12T14:11:16.459Z,2.72
2023-10-12T14:13:44.054Z,2.50
2023-10-12T14:16:11.931Z,2.15
2023-10-12T14:18:39.838Z,2.13
2023-10-12T14:21:12.311Z,2.50
2023-10-12T14:23:47.025Z,2.65
2023-10-12T14:26:23.447Z,3.13
2023-10-12T14:28:52.355Z,2.75
2023-10-12T14:31:22.255Z,3.83
2023-10-12T14:33:49.804Z,3.25
2023-10-12T14:36:18.232Z,3.47
2023-10-12T14:38:46.560Z,2.63
2023-10-12T14:41:18.891Z,2.15
2023-10-12T14:43:50.239Z,2.90
2023-10-12T14:46:21.180Z,2.40
2023-10-12T14:48:52.819Z,2.67
2023-10-12T14:51:22.477Z,2.83
2023-10-12T14:53:51.872Z,2.00
2023-10-12T14:56:28.651Z,2.47
2023-10-12T14:58:57.481Z,2.70
2023-10-12T15:01:29.651Z,2.13
2023-10-12T15:03:57.695Z,2.13
2023-10-12T15:06:25.182Z,1.92
2023-10-12T15:08:54.555Z,2.72
2023-10-12T15:11:22.025Z,2.70
2023-10-12T15:13:50.872Z,2.80
2023-10-12T15:16:20.222Z,2.22
2023-10-12T15:18:47.792Z,2.65
2023-10-12T15:23:46.631Z,3.55
2023-10-12T15:26:15.186Z,2.35
2023-10-12T15:28:48.718Z,2.97
2023-10-12T15:31:17.984Z,2.70
2023-10-12T15:33:45.541Z,4.38
2023-10-12T15:36:16.892Z,3.78
2023-10-12T15:38:44.631Z,3.17
2023-10-12T15:41:12.070Z,3.45
2023-10-12T15:43:39.465Z,4.13
2023-10-12T15:46:12.865Z,3.70
2023-10-12T15:48:43.801Z,3.90
2023-10-12T15:51:18.063Z,3.85
2023-10-12T15:53:45.318Z,3.70
2023-10-12T15:56:12.620Z,3.58
2023-10-12T15:58:41.335Z,4.30
2023-10-12T16:01:09.544Z,4.03
2023-10-12T16:03:37.088Z,3.92
2023-10-12T16:06:05.308Z,3.60
2023-10-12T16:08:32.931Z,4.10
2023-10-12T16:11:00.117Z,3.63
2023-10-12T16:13:27.408Z,3.80
2023-10-12T16:15:56.463Z,4.05
2023-10-12T16:18:24.008Z,3.58
2023-10-12T16:20:51.805Z,3.80
2023-10-12T16:23:21.155Z,3.25
2023-10-12T16:25:52.430Z,2.90
2023-10-12T16:28:19.720Z,3.50
2023-10-12T16:30:48.254Z,3.30
2023-10-12T16:33:16.803Z,4.15
2023-10-12T16:35:46.206Z,3.50
2023-10-12T16:38:13.404Z,3.15
2023-10-12T16:40:41.006Z,4.18
2023-10-12T16:43:10.065Z,4.18
2023-10-12T16:45:37.811Z,3.40
2023-10-12T16:48:08.194Z,4.25
2023-10-12T16:50:35.499Z,3.80
2023-10-12T16:53:02.670Z,4.65
2023-10-12T16:55:30.064Z,6.18
2023-10-12T16:57:57.348Z,6.72
2023-10-12T17:00:25.686Z,7.18
2023-10-12T17:02:53.197Z,6.20
2023-10-12T17:05:24.562Z,5.30
2023-10-12T17:07:53.481Z,6.53
2023-10-12T17:10:25.226Z,6.38
2023-10-12T17:12:53.726Z,6.72
2023-10-12T17:15:21.486Z,6.28
2023-10-12T17:17:49.007Z,6.15
2023-10-12T17:20:17.326Z,5.72
2023-10-12T17:22:45.054Z,6.25
2023-10-12T17:25:14.144Z,6.25
2023-10-12T17:27:42.252Z,7.30
2023-10-12T17:30:11.667Z,6.22
2023-10-12T17:32:39.933Z,6.78
2023-10-12T17:35:13.782Z,6.30
2023-10-12T17:37:41.580Z,6.97
2023-10-12T17:40:10.370Z,8.38
2023-10-12T17:42:38.040Z,7.55
2023-10-12T17:45:10.924Z,7.28
2023-10-12T17:47:42.059Z,7.70
2023-10-12T17:50:16.316Z,8.95
2023-10-12T17:52:44.094Z,14.27
2023-10-12T17:55:12.302Z,17.35
2023-10-12T17:57:39.549Z,22.30
2023-10-12T18:00:11.224Z,26.30
2023-10-12T18:02:43.325Z,25.63
2023-10-12T18:05:13.074Z,32.28
2023-10-12T18:07:41.820Z,45.88
2023-10-12T18:10:09.401Z,37.85
2023-10-12T18:12:39.964Z,37.05
2023-10-12T18:15:10.063Z,31.00
2023-10-12T18:17:37.505Z,28.80
2023-10-12T18:20:06.533Z,36.95
2023-10-12T18:22:34.320Z,42.28
2023-10-12T18:25:02.134Z,41.47
2023-10-12T18:27:29.418Z,42.72
2023-10-12T18:29:56.633Z,38.55
2023-10-12T18:32:24.209Z,39.63
2023-10-12T18:34:53.046Z,34.88
2023-10-12T18:37:20.954Z,29.75
2023-10-12T18:39:48.411Z,27.25
2023-10-12T18:42:16.032Z,23.60
2023-10-12T18:44:43.416Z,25.10
2023-10-12T18:47:10.610Z,24.58
2023-10-12T18:49:37.939Z,22.50
2023-10-12T18:52:05.362Z,23.92
2023-10-12T18:54:32.681Z,24.10
2023-10-12T18:57:00.135Z,23.75
2023-10-12T18:59:27.377Z,24.20
2023-10-12T19:01:55.943Z,28.88
2023-10-12T19:04:23.902Z,30.52
2023-10-12T19:06:52.148Z,28.40
2023-10-12T19:09:19.495Z,30.38
2023-10-12T19:11:46.984Z,32.55
2023-10-12T19:14:14.334Z,32.03
2023-10-12T19:16:41.654Z,32.55
2023-10-12T19:19:09.180Z,24.92
2023-10-12T19:21:39.238Z,22.85
2023-10-12T19:24:11.884Z,24.33
2023-10-12T19:26:40.493Z,29.17
2023-10-12T19:29:07.898Z,33.22
2023-10-12T19:31:38.694Z,39.15
2023-10-12T19:34:06.278Z,35.58
2023-10-12T19:36:33.564Z,34.85
2023-10-12T19:39:00.719Z,36.33
2023-10-12T19:41:28.023Z,37.70
2023-10-12T19:43:57.815Z,36.33
2023-10-12T19:46:26.105Z,35.28
2023-10-12T19:48:53.648Z,33.53
2023-10-12T19:51:22.666Z,34.60
2023-10-12T19:53:51.694Z,32.63
2023-10-12T19:56:20.803Z,33.37
2023-10-12T19:58:49.771Z,33.60
2023-10-12T20:01:21.519Z,38.80
2023-10-12T20:03:52.600Z,39.53
2023-10-12T20:06:20.901Z,42.77
2023-10-12T20:08:49.390Z,41.73
2023-10-12T20:11:17.903Z,44.83
2023-10-12T20:13:50.154Z,50.27
2023-10-12T20:16:25.212Z,48.77
2023-10-12T20:18:52.783Z,45.83
2023-10-12T20:21:21.453Z,43.10
2023-10-12T20:23:49.774Z,41.40
2023-10-12T20:26:24.408Z,38.53
2023-10-12T20:28:51.885Z,36.83
2023-10-12T20:31:19.146Z,37.40
2023-10-12T20:33:47.450Z,37.70
2023-10-12T20:36:14.719Z,39.03
2023-10-12T20:38:42.144Z,35.03
2023-10-12T20:41:09.475Z,35.47
2023-10-12T20:43:36.985Z,34.63
2023-10-12T20:46:11.280Z,36.43
2023-10-12T20:48:39.302Z,39.70
2023-10-12T20:51:07.240Z,45.00
2023-10-12T20:53:35.101Z,44.73
2023-10-12T20:56:10.321Z,45.53
2023-10-12T20:58:45.289Z,42.30
2023-10-12T21:01:21.874Z,37.17
2023-10-12T21:03:56.244Z,36.37
2023-10-12T21:06:32.219Z,37.80
2023-10-12T21:09:14.374Z,36.73
2023-10-12T21:11:49.809Z,35.00
2023-10-12T21:14:27.414Z,32.50
2023-10-12T21:16:59.020Z,28.47
2023-10-12T21:19:27.059Z,28.60
2023-10-12T21:22:08.605Z,25.90
2023-10-12T21:24:39.331Z,27.07
2023-10-12T21:27:15.440Z,28.27
2023-10-12T21:29:50.525Z,29.17
2023-10-12T21:32:28.236Z,28.60
2023-10-12T21:34:55.886Z,28.50
2023-10-12T21:37:23.304Z,26.70
2023-10-12T21:39:51.501Z,25.23
2023-10-12T21:42:20.296Z,26.10
2023-10-12T21:44:47.751Z,23.37
2023-10-12T21:47:15.434Z,22.77
2023-10-12T21:49:45.003Z,22.50
2023-10-12T21:52:13.636Z,21.87
2023-10-12T21:54:41.670Z,20.70
2023-10-12T21:57:11.259Z,20.50
2023-10-12T21:59:39.316Z,21.10
2023-10-12T22:04:38.010Z,23.80
2023-10-12T22:07:08.281Z,22.63
2023-10-12T22:09:58.757Z,25.80
2023-10-12T22:12:28.824Z,29.33
2023-10-12T22:15:13.221Z,32.90
2023-10-12T22:17:48.083Z,27.87
2023-10-12T22:20:17.239Z,24.60
2023-10-12T22:22:44.549Z,22.40
2023-10-12T22:25:15.539Z,22.43
2023-10-12T22:27:45.611Z,23.33
2023-10-12T22:30:17.360Z,22.50
2023-10-12T22:32:44.872Z,23.03
2023-10-12T22:35:12.152Z,23.50
2023-10-12T22:37:40.367Z,22.63
2023-10-12T22:40:18.109Z,23.30
2023-10-12T22:42:45.923Z,21.30
2023-10-12T22:45:16.828Z,21.33
2023-10-12T22:47:47.734Z,20.67
2023-10-12T22:50:17.487Z,19.07
2023-10-12T22:52:47.077Z,20.67
2023-10-12T22:55:16.816Z,23.63
2023-10-12T22:57:45.583Z,22.10
2023-10-12T23:00:22.763Z,23.60
2023-10-12T23:02:50.534Z,23.73
2023-10-12T23:05:17.998Z,25.23
2023-10-12T23:07:45.314Z,22.67
2023-10-12T23:10:16.037Z,21.67
2023-10-12T23:12:43.915Z,21.00
2023-10-12T23:15:14.611Z,20.13
2023-10-12T23:17:57.001Z,20.67
2023-10-12T23:20:41.725Z,22.07
2023-10-12T23:23:13.304Z,18.93
2023-10-12T23:25:45.132Z,19.53
2023-10-12T23:28:19.188Z,17.07
2023-10-12T23:30:47.169Z,15.07
2023-10-12T23:33:17.220Z,13.93
2023-10-12T23:35:48.281Z,12.87
2023-10-12T23:38:35.074Z,13.07
2023-10-12T23:41:14.721Z,13.73
2023-10-12T23:43:53.951Z,13.30
2023-10-12T23:46:25.710Z,16.10
2023-10-12T23:49:06.520Z,14.80
2023-10-12T23:51:35.475Z,13.77
2023-10-12T23:54:07.619Z,14.80
2023-10-12T23:56:41.282Z,12.80
2023-10-12T23:59:09.320Z,14.00
